Latest Weather Observations for Deniliquin

IDN60801

Issued at 8:35 am EST Saturday 2 August 2014 (issued every 30 minutes, with the page automatically refreshed every 10 minutes)

About weather observations | Map of weather stations | Latest weather observations for NSW | Other Formats
Station Details ID: 074258 Name: DENILIQUIN AIRPORT AWS Lat: -35.56 Lon: 144.95 Height: 94.0 m
Data from the previous 72 hours. | See also: Recent months at Deniliquin
Date/Time
EST
Temp
°C
App
Temp
°C
Dew
Point
Rel
Hum
%
Delta-T
°C
Wind Press
QNH
hPa
Press
MSL
hPa
Rain
since 9 am
mm
Dir
 
Spd
km/h
Gust
km/h
Spd
kts
Gust
kts
02/08:30am 0.4 -4.1 -0.2 96 0.2 SW 13 15 7 8 1029.6 - 0.2
02/08:00am -0.7 -5.0 -1.4 95 0.2 W 11 13 6 7 1029.2 - 0.2
02/07:30am -1.6 -5.6 -2.3 95 0.2 WSW 9 11 5 6 1028.7 - 0.2
02/07:00am -1.3 -6.0 -2.0 95 0.2 W 13 15 7 8 1028.3 - 0.2
02/06:30am -1.3 -5.3 -2.0 95 0.2 WSW 9 11 5 6 1027.7 - 0.2
02/06:00am -0.9 -5.6 -1.6 95 0.2 W 13 15 7 8 1026.9 1027.1 0.2
02/05:30am -0.4 -4.6 -1.1 95 0.2 W 11 13 6 7 1026.6 - 0.2
02/05:00am 0.0 -4.9 -0.7 95 0.3 WSW 15 17 8 9 1026.3 - 0.2
02/04:30am -0.3 -4.9 -1.0 95 0.2 W 13 17 7 9 1026.0 - 0.2
02/04:00am -0.4 -5.0 -1.1 95 0.2 WSW 13 17 7 9 1025.7 - 0.2
02/03:30am -0.2 -4.8 -0.9 95 0.2 WSW 13 15 7 8 1025.7 - 0.2
02/03:00am -0.2 -4.8 -0.9 95 0.2 WSW 13 15 7 8 1025.4 1025.6 0.2
02/02:30am -0.1 -4.7 -0.9 94 0.3 WSW 13 15 7 8 1025.1 - 0.2
02/02:00am 0.5 -4.4 -0.2 95 0.3 SW 15 17 8 9 1024.8 - 0.2
02/01:30am 0.7 -4.5 0.0 95 0.3 WSW 17 19 9 10 1024.8 - 0.2
02/01:00am 0.9 -3.9 0.2 95 0.3 W 15 19 8 10 1024.6 - 0.2
02/12:30am 0.9 -3.6 0.0 94 0.3 W 13 19 7 10 1024.4 - 0.2
02/12:00am 1.5 -2.9 0.5 93 0.4 W 13 17 7 9 1024.1 1024.2 0.2
 
Date/Time
EST
Temp
°C
App
Temp
°C
Dew
Point
Rel
Hum
%
Delta-T
°C
Wind Press
QNH
hPa
Press
MSL
hPa
Rain
since 9 am
mm
Dir
 
Spd
km/h
Gust
km/h
Spd
kts
Gust
kts
01/11:30pm 1.8 -2.6 0.6 92 0.4 W 13 15 7 8 1023.8 - 0.2
01/11:00pm 2.3 -2.4 1.0 91 0.5 W 15 19 8 10 1023.6 - 0.2
01/10:30pm 2.6 -2.4 1.3 91 0.5 W 17 22 9 12 1023.2 - 0.2
01/10:00pm 2.7 -2.3 1.4 91 0.5 W 17 20 9 11 1022.2 - 0.2
01/09:30pm 3.0 -2.4 1.5 90 0.6 W 19 24 10 13 1021.9 - 0.2
01/09:00pm 3.6 -1.6 2.3 91 0.5 W 19 24 10 13 1021.3 1021.4 0.2
01/08:30pm 2.9 -2.1 1.4 90 0.6 W 17 19 9 10 1020.8 - 0.2
01/08:00pm 3.2 -1.8 1.6 89 0.6 W 17 20 9 11 1020.2 - 0.2
01/07:30pm 3.8 -1.1 2.0 88 0.7 W 17 22 9 12 1019.7 - 0.2
01/07:00pm 4.6 -1.2 2.3 85 0.9 W 22 28 12 15 1019.0 - 0.2
01/06:30pm 5.0 -0.8 2.4 83 1.1 W 22 30 12 16 1018.3 - 0.2
01/06:00pm 5.1 0.0 2.8 85 0.9 W 19 24 10 13 1017.4 1017.5 0.2
01/05:30pm 6.1 0.9 3.3 82 1.2 W 20 24 11 13 1016.5 - 0.2
01/05:00pm 6.3 0.3 3.6 83 1.1 WSW 24 28 13 15 1015.8 - 0.2
01/04:31pm 6.4 -1.7 3.2 80 1.3 SW 35 54 19 29 1015.0 - 0.0
01/04:30pm 6.5 -2.0 3.3 80 1.3 SW 37 54 20 29 1015.0 - 0.0
01/04:19pm 7.4 -3.2 1.0 64 2.6 SSW 46 67 25 36 1014.6 - 0.0
01/04:17pm 8.8 0.3 1.2 59 3.1 WSW 35 67 19 36 1014.4 - 0.0
01/04:00pm 9.6 1.7 2.5 61 3.0 WSW 33 44 18 24 1013.3 - 0.0
01/03:30pm 8.9 0.0 2.9 66 2.6 WSW 39 50 21 27 1013.1 - 0.0
01/03:00pm 9.0 1.0 3.8 70 2.3 W 35 43 19 23 1012.3 1012.4 0.0
01/02:30pm 8.2 -1.2 4.2 76 1.8 W 43 63 23 34 1011.8 - 0.0
01/02:23pm 8.1 -0.7 3.6 73 1.9 W 39 63 21 34 1011.6 - 0.0
01/02:00pm 9.1 0.7 3.7 69 2.4 W 37 50 20 27 1011.2 - 0.0
01/01:37pm 8.7 1.1 2.7 66 2.5 W 32 52 17 28 1011.0 - 0.0
01/01:30pm 8.0 0.5 3.7 74 1.9 WSW 32 50 17 27 1010.9 - 0.0
01/01:00pm 9.4 1.1 2.3 61 3.0 WNW 35 50 19 27 1010.8 - 0.0
01/12:39pm 9.3 1.5 2.9 64 2.7 W 33 52 18 28 1010.5 - 0.0
01/12:30pm 9.1 -0.3 2.4 63 2.8 W 41 52 22 28 1010.7 - 0.0
01/12:00pm 9.3 1.0 4.1 70 2.3 WNW 37 48 20 26 1010.8 1010.9 0.0
01/11:30am 8.3 -0.5 3.4 71 2.1 WNW 39 56 21 30 1010.8 - 0.0
01/11:21am 7.7 -0.8 3.0 72 2.0 WNW 37 56 20 30 1010.7 - 0.0
01/11:00am 8.1 0.8 4.3 77 1.7 WNW 32 43 17 23 1010.5 - 0.0
01/10:30am 7.2 -1.2 3.6 78 1.5 WNW 37 48 20 26 1010.5 - 0.0
01/10:00am 7.1 -1.0 3.5 78 1.5 WNW 35 48 19 26 1010.3 - 0.0
01/09:30am 6.9 -0.5 4.0 82 1.2 WNW 32 43 17 23 1009.9 - 0.0
01/09:00am 5.9 -0.9 3.2 83 1.1 NW 28 37 15 20 1009.9 1010.0 1.0
01/08:30am 5.6 -0.8 3.1 84 1.0 NW 26 35 14 19 1009.6 - 1.0
01/08:00am 4.9 -0.2 3.1 88 0.7 NW 19 30 10 16 1009.4 - 1.0
01/07:30am 3.3 -1.2 2.0 91 0.5 NNW 15 19 8 10 1009.2 - 1.0
01/07:00am 3.6 -0.9 2.1 90 0.6 NW 15 17 8 9 1009.1 - 1.0
01/06:30am 3.8 -0.3 2.3 90 0.6 WNW 13 17 7 9 1009.0 - 1.0
01/06:00am 4.1 -0.7 2.6 90 0.6 NW 17 20 9 11 1008.5 1008.6 1.0
01/05:30am 4.4 -0.3 2.9 90 0.6 WNW 17 22 9 12 1008.3 - 1.0
01/05:00am 4.6 -0.1 3.1 90 0.6 WNW 17 22 9 12 1008.1 - 1.0
01/04:30am 5.0 -0.2 3.5 90 0.6 WNW 20 28 11 15 1007.9 - 1.0
01/04:00am 5.1 -0.1 3.3 88 0.7 WNW 20 30 11 16 1007.6 - 1.0
01/03:30am 5.1 -0.5 3.3 88 0.7 WNW 22 28 12 15 1007.6 - 1.0
01/03:00am 5.0 -0.6 3.2 88 0.7 NW 22 28 12 15 1007.4 1007.5 1.0
01/02:30am 4.8 -0.3 3.1 89 0.7 WNW 19 24 10 13 1007.7 - 1.0
01/02:00am 4.9 0.2 2.9 87 0.8 NW 17 24 9 13 1007.7 - 1.0
01/01:30am 5.1 0.4 3.3 88 0.7 WNW 17 20 9 11 1007.7 - 1.0
01/01:00am 5.8 1.7 4.3 90 0.6 NW 15 20 8 11 1007.6 - 1.0
01/12:30am 6.0 2.7 4.5 90 0.6 WNW 11 15 6 8 1007.2 - 1.0
01/12:00am 6.1 2.8 4.4 89 0.7 WNW 11 13 6 7 1007.2 1007.3 1.0
 
Date/Time
EST
Temp
°C
App
Temp
°C
Dew
Point
Rel
Hum
%
Delta-T
°C
Wind Press
QNH
hPa
Press
MSL
hPa
Rain
since 9 am
mm
Dir
 
Spd
km/h
Gust
km/h
Spd
kts
Gust
kts
31/11:30pm 6.4 1.0 4.7 89 0.7 WSW 22 28 12 15 1007.6 - 1.0
31/11:00pm 6.8 -0.6 4.8 87 0.9 WSW 33 46 18 25 1007.4 - 0.8
31/10:41pm 7.2 -2.9 5.8 91 0.6 WSW 48 67 26 36 1007.2 - 0.8
31/10:30pm 8.3 4.0 7.2 93 0.5 W 19 26 10 14 1006.5 - 0.4
31/10:00pm 8.1 3.2 6.9 92 0.6 W 22 28 12 15 1006.2 - 0.4
31/09:30pm 8.3 3.8 6.8 90 0.7 WSW 20 24 11 13 1005.9 - 0.0
31/09:00pm 8.7 5.1 5.1 78 1.6 W 13 15 7 8 1005.2 1005.3 0.0
31/08:30pm 8.7 5.0 4.5 75 1.9 WSW 13 19 7 10 1004.5 - 0.0
31/08:00pm 9.2 3.1 4.8 74 2.0 WSW 26 32 14 17 1004.5 - 0.0
31/07:30pm 10.2 3.5 5.8 74 2.0 WSW 30 39 16 21 1004.2 - 0.0
31/07:00pm 11.0 2.9 5.1 67 2.7 WSW 37 48 20 26 1002.9 - 0.0
31/06:34pm 12.8 3.8 4.5 57 3.8 WSW 41 59 22 32 1002.3 - 0.0
31/06:30pm 13.6 4.2 4.2 53 4.3 W 43 59 23 32 1001.9 - 0.0
31/06:25pm 15.3 4.3 3.1 44 5.5 W 50 59 27 32 1001.7 - 0.0
31/06:24pm 16.6 9.6 2.2 38 6.5 WNW 28 57 15 31 1001.7 - 0.0
31/06:00pm 16.8 11.6 0.0 32 7.3 NW 17 20 9 11 1000.9 1001.1 0.0
31/05:30pm 18.8 12.6 -0.6 27 8.4 NW 22 35 12 19 1000.5 - 0.0
31/05:00pm 20.0 12.5 -1.2 24 9.2 NW 28 43 15 23 1000.5 - 0.0
31/04:42pm 20.8 12.4 -2.3 21 9.9 NW 32 50 17 27 1000.2 - 0.0
31/04:30pm 20.9 13.0 -1.6 22 9.7 NW 30 44 16 24 1000.3 - 0.0
31/04:02pm 21.2 12.8 -0.7 23 9.7 NW 33 52 18 28 1000.6 - 0.0
31/04:00pm 21.2 12.4 -1.3 22 9.8 NW 35 52 19 28 1000.5 - 0.0
31/03:30pm 21.5 11.6 -1.1 22 9.9 NW 41 59 22 32 1000.7 - 0.0
31/03:26pm 21.5 11.9 -1.7 21 10.1 NW 39 59 21 32 1000.7 - 0.0
31/03:00pm 21.4 11.1 -1.2 22 10.0 NW 43 57 23 31 1001.2 1001.4 0.0
31/02:30pm 21.3 11.3 -1.3 22 9.9 NW 41 59 22 32 1001.9 - 0.0
31/02:00pm 21.2 9.6 -0.7 23 9.7 NW 50 70 27 38 1002.1 - 0.0
31/01:30pm 21.0 9.1 -0.3 24 9.5 NW 52 72 28 39 1002.6 - 0.0
31/01:10pm 20.8 9.6 -0.5 24 9.4 NNW 48 67 26 36 1003.0 - 0.0
31/01:00pm 20.7 9.6 0.0 25 9.2 NNW 48 63 26 34 1003.5 - 0.0
31/12:31pm 20.4 10.2 0.8 27 8.9 NNW 44 69 24 37 1004.4 - 0.0
31/12:30pm 20.7 10.8 1.6 28 8.8 NNW 43 59 23 32 1004.5 - 0.0
31/12:22pm 20.6 12.4 2.9 31 8.4 NNW 35 54 19 29 1005.1 - 0.0
31/12:00pm 19.5 10.5 2.4 32 8.0 NNW 39 54 21 29 1005.7 1005.8 0.0
31/11:30am 19.0 10.9 3.2 35 7.4 NNW 35 50 19 27 1006.8 - 0.0
31/11:00am 17.8 9.8 3.7 39 6.6 N 35 54 19 29 1007.4 - 0.0
31/10:55am 17.3 9.5 2.9 38 6.6 N 33 54 18 29 1007.4 - 0.0
31/10:30am 16.1 8.4 3.5 43 5.8 N 33 43 18 23 1008.0 - 0.0
31/10:00am 15.1 7.5 3.9 47 5.2 NNW 33 44 18 24 1008.4 - 0.0
31/09:30am 12.5 7.1 4.5 58 3.7 N 22 28 12 15 1009.0 - 0.0
31/09:00am 10.4 4.9 3.9 64 2.9 N 22 32 12 17 1009.4 1009.6 0.0
31/08:30am 9.5 3.9 3.7 67 2.5 N 22 28 12 15 1009.6 - 0.0
31/08:00am 8.1 2.9 3.4 72 2.0 N 20 30 11 16 1009.9 - 0.0
31/07:30am 7.3 2.3 3.4 76 1.7 N 19 26 10 14 1010.1 - 0.0
31/07:00am 7.5 2.3 3.7 77 1.6 N 20 28 11 15 1010.2 - 0.0
31/06:30am 7.2 2.6 3.8 79 1.5 N 17 22 9 12 1010.4 - 0.0
31/06:00am 7.6 2.7 4.2 79 1.5 N 19 24 10 13 1010.3 1010.5 0.0
31/05:30am 7.6 3.2 4.6 81 1.3 N 17 22 9 12 1010.5 - 0.0
31/05:00am 7.5 3.5 5.0 84 1.1 N 15 19 8 10 1010.6 - 0.0
31/04:30am 8.0 4.5 5.3 83 1.2 N 13 19 7 10 1011.0 - 0.0
31/04:00am 8.5 4.7 5.8 83 1.2 N 15 17 8 9 1011.1 - 0.0
31/03:30am 8.8 5.4 6.1 83 1.2 N 13 19 7 10 1011.7 - 0.0
31/03:00am 9.2 5.9 6.3 82 1.3 N 13 17 7 9 1012.2 1012.4 0.0
31/02:30am 9.6 6.0 6.7 82 1.4 N 15 20 8 11 1012.6 - 0.0
31/02:00am 10.0 6.4 6.9 81 1.5 N 15 19 8 10 1013.0 - 0.0
31/01:30am 10.7 7.2 7.2 79 1.7 N 15 19 8 10 1013.2 - 0.0
31/01:00am 11.2 7.8 7.5 78 1.8 N 15 19 8 10 1013.5 - 0.0
31/12:30am 11.5 8.4 7.4 76 2.0 N 13 15 7 8 1013.7 - 0.0
31/12:00am 12.1 8.3 7.6 74 2.2 N 17 20 9 11 1014.1 1014.3 0.0
 
Date/Time
EST
Temp
°C
App
Temp
°C
Dew
Point
Rel
Hum
%
Delta-T
°C
Wind Press
QNH
hPa
Press
MSL
hPa
Rain
since 9 am
mm
Dir
 
Spd
km/h
Gust
km/h
Spd
kts
Gust
kts
30/11:30pm 12.1 8.8 8.0 76 2.0 N 15 20 8 11 1014.2 - 0.0
30/11:00pm 12.2 8.9 8.1 76 2.0 N 15 20 8 11 1014.5 - 0.0
30/10:30pm 11.5 8.5 7.6 77 1.9 N 13 15 7 8 1014.8 - 0.0
30/10:00pm 11.2 8.5 7.3 77 1.9 NNW 11 13 6 7 1015.0 - 0.0
30/09:30pm 12.7 9.3 7.8 72 2.4 NNW 15 17 8 9 1015.0 - 0.0
30/09:00pm 13.6 10.3 8.2 70 2.7 N 15 20 8 11 1015.1 1015.3 0.0
30/08:30pm 13.5 11.1 8.6 72 2.5 NNW 11 15 6 8 1015.4 - 0.0
30/08:00pm 13.2 10.0 8.3 72 2.4 NNW 15 17 8 9 1015.4 - 0.0
30/07:30pm 13.2 10.3 8.1 71 2.5 NNW 13 15 7 8 1015.6 - 0.0
30/07:00pm 13.5 10.5 7.7 68 2.9 NNW 13 17 7 9 1015.5 - 0.0
30/06:30pm 14.7 11.4 8.2 65 3.3 NNW 15 17 8 9 1015.4 - 0.0
30/06:00pm 14.9 11.7 8.4 65 3.3 NNW 15 19 8 10 1015.3 1015.5 0.0
30/05:30pm 15.6 12.4 8.6 63 3.6 NW 15 19 8 10 1015.3 - 0.0
30/05:00pm 16.3 13.1 8.5 60 4.0 NW 15 22 8 12 1015.1 - 0.0
30/04:30pm 17.3 13.9 9.0 58 4.3 WNW 17 22 9 12 1014.9 - 0.0
30/04:00pm 17.1 12.6 8.5 57 4.4 WNW 22 28 12 15 1015.0 - 0.0
30/03:30pm 17.3 13.5 9.0 58 4.3 WNW 19 26 10 14 1015.1 - 0.0
30/03:00pm 17.5 12.2 8.6 56 4.6 WNW 26 35 14 19 1015.1 1015.3 0.0
30/02:30pm 17.3 12.5 8.7 57 4.4 WNW 24 33 13 18 1015.5 - 0.0
30/02:00pm 17.2 12.8 8.9 58 4.3 WNW 22 28 12 15 1015.6 - 0.0
30/01:30pm 17.7 12.2 9.1 57 4.5 NW 28 35 15 19 1015.6 - 0.0
30/01:00pm 17.6 12.9 9.2 58 4.4 WNW 24 30 13 16 1016.1 - 0.0
30/12:30pm 16.2 10.9 9.8 66 3.4 WNW 28 37 15 20 1016.9 - 0.0
30/12:00pm 16.2 11.8 10.3 68 3.1 WNW 24 39 13 21 1017.4 1017.6 0.0
30/11:30am 15.4 11.9 10.8 74 2.5 NW 20 30 11 16 1017.7 - 0.0
30/11:00am 14.7 10.3 10.3 75 2.3 NW 24 32 13 17 1018.1 - 0.0
30/10:30am 14.4 10.8 10.6 78 2.0 NW 20 28 11 15 1018.5 - 0.0
30/10:00am 13.4 9.6 9.8 79 1.9 NW 20 26 11 14 1018.3 - 0.0
30/09:30am 12.7 8.9 9.7 82 1.5 NW 20 26 11 14 1018.2 - 0.0
30/09:00am 12.6 9.0 9.8 83 1.4 NW 19 24 10 13 1017.9 1018.1 0.0

Other Formats:

Comma delimited format used in spreadsheet applications
http://www.bom.gov.au/fwo/IDN60801/IDN60801.95869.axf

JavaScript Object Notation format (JSON) in row-major order
http://www.bom.gov.au/fwo/IDN60801/IDN60801.95869.json